createdAt,value
2018-09-17T00:00:06.338Z,13.89
2018-09-17T00:01:06.636Z,13.88
2018-09-17T00:02:06.088Z,13.86
2018-09-17T00:03:07.205Z,13.85
2018-09-17T00:04:07.482Z,13.84
2018-09-17T00:05:07.929Z,13.83
2018-09-17T00:06:08.244Z,13.82
2018-09-17T00:07:08.560Z,13.81
2018-09-17T00:08:08.917Z,13.80
2018-09-17T00:08:17.309Z,13.64
2018-09-17T00:09:18.752Z,13.64
2018-09-17T00:10:19.583Z,13.64
2018-09-17T00:11:19.984Z,13.64
2018-09-17T00:12:20.330Z,13.64
2018-09-17T00:13:21.061Z,13.63
2018-09-17T00:14:21.460Z,13.63
2018-09-17T00:15:21.705Z,13.63
2018-09-17T00:16:21.992Z,13.62
2018-09-17T00:17:22.360Z,13.62
2018-09-17T00:18:23.175Z,13.62
2018-09-17T00:19:23.605Z,13.62
2018-09-17T00:20:23.966Z,13.62
2018-09-17T00:21:24.299Z,13.62
2018-09-17T00:22:24.994Z,13.62
2018-09-17T00:23:25.501Z,13.61
2018-09-17T00:24:25.946Z,13.61
2018-09-17T00:25:26.235Z,13.60
2018-09-17T00:26:26.524Z,13.60
2018-09-17T00:27:27.068Z,13.59
2018-09-17T00:28:27.365Z,13.58
2018-09-17T00:29:27.718Z,13.58
2018-09-17T00:30:28.013Z,13.57
2018-09-17T00:31:28.442Z,13.56
2018-09-17T00:32:28.833Z,13.55
2018-09-17T00:33:29.234Z,13.54
2018-09-17T00:34:29.906Z,13.53
2018-09-17T00:35:30.304Z,13.52
2018-09-17T00:36:30.657Z,13.51
2018-09-17T00:37:31.114Z,13.51
2018-09-17T00:38:31.492Z,13.49
2018-09-17T00:39:31.807Z,13.48
2018-09-17T00:40:32.140Z,13.47
2018-09-17T00:41:32.836Z,13.46
2018-09-17T00:42:33.105Z,13.45
2018-09-17T00:43:33.427Z,13.44
2018-09-17T00:44:33.867Z,13.43
2018-09-17T00:45:34.127Z,13.43
2018-09-17T00:46:34.483Z,13.42
2018-09-17T00:47:34.880Z,13.42
2018-09-17T00:48:35.174Z,13.42
2018-09-17T00:49:35.551Z,13.42
2018-09-17T00:50:35.813Z,13.41
2018-09-17T00:51:36.067Z,13.41
2018-09-17T00:52:36.636Z,13.41
2018-09-17T00:52:44.974Z,13.37
2018-09-17T00:53:46.257Z,13.37
2018-09-17T00:54:46.530Z,13.38
2018-09-17T00:55:46.920Z,13.38
2018-09-17T00:56:47.216Z,13.38
2018-09-17T00:57:46.872Z,13.39
2018-09-17T00:58:47.382Z,13.39
2018-09-17T00:59:48.762Z,13.39
2018-09-17T01:00:49.061Z,13.39
2018-09-17T01:01:49.378Z,13.39
2018-09-17T01:02:49.754Z,13.39
2018-09-17T01:03:50.073Z,13.39
2018-09-17T01:04:50.315Z,13.39
2018-09-17T01:05:50.655Z,13.39
2018-09-17T01:06:50.971Z,13.39
2018-09-17T01:07:51.330Z,13.39
2018-09-17T01:08:51.621Z,13.39
2018-09-17T01:09:52.361Z,13.39
2018-09-17T01:10:52.898Z,13.39
2018-09-17T01:11:53.202Z,13.39
2018-09-17T01:12:53.695Z,13.38
2018-09-17T01:13:54.169Z,13.38
2018-09-17T01:14:54.483Z,13.36
2018-09-17T01:15:54.793Z,13.35
2018-09-17T01:16:55.240Z,13.34
2018-09-17T01:17:55.737Z,13.33
2018-09-17T01:18:56.094Z,13.31
2018-09-17T01:19:56.339Z,13.30
2018-09-17T01:20:57.059Z,13.29
2018-09-17T01:21:57.452Z,13.28
2018-09-17T01:22:57.800Z,13.26
2018-09-17T01:23:58.631Z,13.24
2018-09-17T01:24:57.782Z,13.22
2018-09-17T01:25:59.121Z,13.21
2018-09-17T01:26:59.451Z,13.18
2018-09-17T01:27:59.827Z,13.16
2018-09-17T01:29:00.208Z,13.14
2018-09-17T01:30:00.584Z,13.11
2018-09-17T01:31:01.413Z,13.10
2018-09-17T01:32:01.721Z,13.08
2018-09-17T01:33:01.996Z,13.06
2018-09-17T01:34:02.352Z,13.04
2018-09-17T01:35:02.634Z,13.03
2018-09-17T01:36:02.867Z,13.01
2018-09-17T01:37:03.123Z,12.99
2018-09-17T01:38:03.448Z,12.98
2018-09-17T01:38:11.922Z,12.70
2018-09-17T01:39:13.123Z,12.70
2018-09-17T01:40:13.341Z,12.70
2018-09-17T01:41:13.908Z,12.70
2018-09-17T01:42:14.206Z,12.70
2018-09-17T01:43:14.493Z,12.69
2018-09-17T01:44:15.124Z,12.68
2018-09-17T01:45:15.442Z,12.68
2018-09-17T01:46:15.815Z,12.67
2018-09-17T01:47:15.061Z,12.67
2018-09-17T01:48:16.353Z,12.67
2018-09-17T01:49:16.857Z,12.66
2018-09-17T01:50:16.939Z,12.66
2018-09-17T01:51:17.217Z,12.66
2018-09-17T01:52:17.775Z,12.65
2018-09-17T01:53:18.079Z,12.65
2018-09-17T01:54:18.383Z,12.64
2018-09-17T01:55:18.712Z,12.64
2018-09-17T01:56:19.204Z,12.64
2018-09-17T01:57:19.485Z,12.64
2018-09-17T01:58:19.835Z,12.64
2018-09-17T01:59:20.169Z,12.64
2018-09-17T02:00:21.140Z,12.64
2018-09-17T02:01:21.838Z,12.63
2018-09-17T02:02:22.196Z,12.63
2018-09-17T02:03:22.584Z,12.62
2018-09-17T02:04:23.084Z,12.61
2018-09-17T02:05:23.535Z,12.60
2018-09-17T02:06:24.145Z,12.59
2018-09-17T02:07:24.383Z,12.58
2018-09-17T02:08:25.204Z,12.56
2018-09-17T02:09:25.560Z,12.55
2018-09-17T02:10:25.868Z,12.54
2018-09-17T02:11:26.188Z,12.53
2018-09-17T02:12:26.483Z,12.53
2018-09-17T02:13:26.774Z,12.52
2018-09-17T02:14:27.069Z,12.50
2018-09-17T02:15:27.475Z,12.50
2018-09-17T02:16:28.098Z,12.48
2018-09-17T02:17:28.378Z,12.47
2018-09-17T02:18:28.860Z,12.46
2018-09-17T02:19:29.285Z,12.45
2018-09-17T02:20:29.576Z,12.44
2018-09-17T02:21:30.022Z,12.44
2018-09-17T02:22:30.517Z,12.43
2018-09-17T02:23:30.853Z,12.41
2018-09-17T02:23:39.281Z,12.22
2018-09-17T02:24:40.531Z,12.21
2018-09-17T02:25:40.985Z,12.21
2018-09-17T02:26:41.312Z,12.19
2018-09-17T02:27:41.659Z,12.19
2018-09-17T02:28:42.142Z,12.18
2018-09-17T02:29:42.701Z,12.17
2018-09-17T02:30:43.001Z,12.15
2018-09-17T02:31:43.332Z,12.14
2018-09-17T02:32:42.680Z,12.13
2018-09-17T02:33:43.997Z,12.12
2018-09-17T02:34:44.859Z,12.11
2018-09-17T02:35:45.224Z,12.10
2018-09-17T02:36:45.518Z,12.08
2018-09-17T02:37:46.099Z,12.07
2018-09-17T02:38:46.533Z,12.06
2018-09-17T02:39:47.143Z,12.04
2018-09-17T02:40:47.295Z,12.03
2018-09-17T02:41:47.808Z,12.02
2018-09-17T02:42:48.351Z,12.01
2018-09-17T02:43:48.695Z,12.00
2018-09-17T02:44:49.078Z,11.99
2018-09-17T02:45:49.328Z,11.99
2018-09-17T02:46:49.690Z,11.98
2018-09-17T02:47:50.059Z,11.97
2018-09-17T02:48:50.321Z,11.96
2018-09-17T02:49:50.912Z,11.95
2018-09-17T02:50:51.316Z,11.93
2018-09-17T02:51:51.897Z,11.92
2018-09-17T02:52:52.332Z,11.91
2018-09-17T02:53:52.662Z,11.89
2018-09-17T02:54:52.915Z,11.88
2018-09-17T02:55:53.208Z,11.87
2018-09-17T02:56:53.706Z,11.86
2018-09-17T02:57:54.054Z,11.85
2018-09-17T02:58:54.381Z,11.85
2018-09-17T02:59:54.792Z,11.84
2018-09-17T03:00:55.139Z,11.83
2018-09-17T03:01:55.457Z,11.83
2018-09-17T03:02:55.753Z,11.82
2018-09-17T03:03:56.061Z,11.81
2018-09-17T03:04:56.349Z,11.80
2018-09-17T03:05:56.659Z,11.80
2018-09-17T03:06:57.240Z,11.79
2018-09-17T03:07:57.568Z,11.78
2018-09-17T03:08:05.651Z,11.64
2018-09-17T03:09:07.255Z,11.64
2018-09-17T03:10:07.562Z,11.63
2018-09-17T03:11:07.938Z,11.63
2018-09-17T03:12:08.364Z,11.62
2018-09-17T03:13:08.790Z,11.62
2018-09-17T03:14:09.277Z,11.61
2018-09-17T03:15:09.855Z,11.61
2018-09-17T03:16:10.080Z,11.60
2018-09-17T03:17:10.625Z,11.60
2018-09-17T03:18:10.918Z,11.59
2018-09-17T03:19:11.221Z,11.58
2018-09-17T03:20:11.509Z,11.58
2018-09-17T03:21:11.950Z,11.57
2018-09-17T03:22:12.304Z,11.56
2018-09-17T03:23:12.589Z,11.55
2018-09-17T03:24:13.248Z,11.54
2018-09-17T03:25:13.585Z,11.53
2018-09-17T03:26:13.922Z,11.52
2018-09-17T03:27:14.419Z,11.51
2018-09-17T03:28:14.930Z,11.50
2018-09-17T03:29:15.264Z,11.49
2018-09-17T03:30:15.586Z,11.49
2018-09-17T03:31:15.966Z,11.48
2018-09-17T03:32:16.327Z,11.47
2018-09-17T03:33:17.144Z,11.46
2018-09-17T03:34:17.510Z,11.45
2018-09-17T03:35:17.913Z,11.44
2018-09-17T03:36:18.264Z,11.43
2018-09-17T03:37:18.548Z,11.42
2018-09-17T03:38:19.004Z,11.41
2018-09-17T03:39:19.471Z,11.40
2018-09-17T03:40:20.069Z,11.39
2018-09-17T03:41:20.343Z,11.39
2018-09-17T03:42:20.429Z,11.38
2018-09-17T03:43:20.730Z,11.38
2018-09-17T03:44:21.245Z,11.37
2018-09-17T03:45:20.872Z,11.37
2018-09-17T03:46:22.158Z,11.37
2018-09-17T03:47:22.869Z,11.36
2018-09-17T03:48:23.090Z,11.36
2018-09-17T03:49:23.603Z,11.35
2018-09-17T03:50:24.112Z,11.35
2018-09-17T03:51:24.769Z,11.34
2018-09-17T03:52:25.371Z,11.33
2018-09-17T03:52:34.358Z,11.29
2018-09-17T03:53:34.957Z,11.29
2018-09-17T03:54:35.595Z,11.29
2018-09-17T03:55:36.385Z,11.29
2018-09-17T03:56:37.044Z,11.29
2018-09-17T03:57:37.576Z,11.30
2018-09-17T03:58:37.837Z,11.29
2018-09-17T03:59:38.190Z,11.28
2018-09-17T04:00:38.466Z,11.28
2018-09-17T04:01:38.970Z,11.27
2018-09-17T04:02:39.418Z,11.26
2018-09-17T04:03:39.750Z,11.25
2018-09-17T04:04:40.263Z,11.24
2018-09-17T04:05:40.791Z,11.23
2018-09-17T04:06:41.236Z,11.22
2018-09-17T04:07:41.892Z,11.21
2018-09-17T04:08:42.337Z,11.20
2018-09-17T04:09:42.916Z,11.19
2018-09-17T04:10:43.211Z,11.18
2018-09-17T04:11:43.520Z,11.17
2018-09-17T04:12:44.061Z,11.17
2018-09-17T04:13:44.448Z,11.16
2018-09-17T04:14:44.858Z,11.15
2018-09-17T04:15:45.316Z,11.15
2018-09-17T04:16:45.797Z,11.15
2018-09-17T04:17:46.224Z,11.15
2018-09-17T04:18:46.625Z,11.15
2018-09-17T04:19:45.921Z,11.14
2018-09-17T04:20:47.435Z,11.14
2018-09-17T04:21:47.835Z,11.13
2018-09-17T04:22:48.125Z,11.14
2018-09-17T04:23:48.478Z,11.14
2018-09-17T04:24:49.022Z,11.14
2018-09-17T04:25:49.335Z,11.13
2018-09-17T04:26:49.736Z,11.13
2018-09-17T04:27:50.281Z,11.12
2018-09-17T04:28:50.821Z,11.11
2018-09-17T04:29:51.101Z,11.09
2018-09-17T04:30:51.702Z,11.08
2018-09-17T04:31:52.335Z,11.06
2018-09-17T04:32:52.558Z,11.04
2018-09-17T04:33:53.428Z,11.03
2018-09-17T04:34:54.122Z,11.01
2018-09-17T04:35:54.423Z,11.00
2018-09-17T04:36:55.107Z,10.98
2018-09-17T04:37:03.496Z,10.77
2018-09-17T04:38:04.680Z,10.77
2018-09-17T04:39:04.961Z,10.77
2018-09-17T04:40:05.332Z,10.76
2018-09-17T04:41:06.028Z,10.76
2018-09-17T04:42:06.591Z,10.75
2018-09-17T04:43:07.129Z,10.75
2018-09-17T04:44:07.519Z,10.75
2018-09-17T04:45:08.028Z,10.74
2018-09-17T04:46:08.684Z,10.73
2018-09-17T04:47:09.170Z,10.72
2018-09-17T04:48:09.572Z,10.71
2018-09-17T04:49:09.960Z,10.70
2018-09-17T04:50:10.408Z,10.69
2018-09-17T04:51:09.766Z,10.68
2018-09-17T04:52:11.091Z,10.68
2018-09-17T04:53:11.542Z,10.67
2018-09-17T04:54:11.812Z,10.67
2018-09-17T04:55:12.198Z,10.67
2018-09-17T04:56:12.625Z,10.67
2018-09-17T04:57:12.990Z,10.68
2018-09-17T04:58:13.303Z,10.68
2018-09-17T04:59:13.718Z,10.68
2018-09-17T05:00:14.188Z,10.67
2018-09-17T05:01:14.770Z,10.67
2018-09-17T05:02:14.992Z,10.67
2018-09-17T05:03:15.335Z,10.67
2018-09-17T05:04:15.650Z,10.68
2018-09-17T05:05:15.941Z,10.68
2018-09-17T05:06:16.506Z,10.68
2018-09-17T05:07:16.798Z,10.68
2018-09-17T05:08:16.536Z,10.69
2018-09-17T05:09:17.939Z,10.69
2018-09-17T05:10:18.226Z,10.69
2018-09-17T05:11:18.483Z,10.69
2018-09-17T05:12:19.102Z,10.68
2018-09-17T05:13:19.685Z,10.68
2018-09-17T05:14:18.806Z,10.68
2018-09-17T05:15:20.131Z,10.67
2018-09-17T05:16:20.383Z,10.67
2018-09-17T05:17:20.681Z,10.66
2018-09-17T05:18:21.021Z,10.65
2018-09-17T05:19:21.624Z,10.65
2018-09-17T05:20:21.978Z,10.65
2018-09-17T05:21:22.732Z,10.65
2018-09-17T05:22:23.397Z,10.64
2018-09-17T05:23:23.912Z,10.63
2018-09-17T05:23:32.709Z,10.59
2018-09-17T05:24:33.413Z,10.59
2018-09-17T05:25:34.025Z,10.59
2018-09-17T05:26:34.583Z,10.59
2018-09-17T05:27:34.890Z,10.59
2018-09-17T05:28:35.230Z,10.59
2018-09-17T05:29:35.767Z,10.59
2018-09-17T05:30:36.154Z,10.59
2018-09-17T05:31:36.403Z,10.58
2018-09-17T05:32:36.879Z,10.58
2018-09-17T05:33:37.267Z,10.58
2018-09-17T05:34:37.714Z,10.58
2018-09-17T05:35:38.300Z,10.58
2018-09-17T05:36:38.605Z,10.58
2018-09-17T05:37:38.915Z,10.58
2018-09-17T05:38:39.455Z,10.58
2018-09-17T05:39:40.185Z,10.58
2018-09-17T05:40:40.560Z,10.58
2018-09-17T05:41:40.842Z,10.58
2018-09-17T05:42:41.246Z,10.58
2018-09-17T05:43:41.675Z,10.58
2018-09-17T05:44:42.785Z,10.58
2018-09-17T05:45:42.067Z,10.59
2018-09-17T05:46:42.284Z,10.59
2018-09-17T05:47:42.957Z,10.59
2018-09-17T05:48:43.424Z,10.60
2018-09-17T05:49:43.639Z,10.61
2018-09-17T05:50:43.990Z,10.61
2018-09-17T05:51:44.532Z,10.62
2018-09-17T05:52:44.840Z,10.63
2018-09-17T05:53:45.325Z,10.65
2018-09-17T05:54:45.928Z,10.66
2018-09-17T05:55:46.360Z,10.68
2018-09-17T05:56:46.640Z,10.69
2018-09-17T05:57:47.182Z,10.71
2018-09-17T05:58:47.527Z,10.72
2018-09-17T05:59:47.798Z,10.74
2018-09-17T06:00:48.102Z,10.76
2018-09-17T06:01:48.542Z,10.78
2018-09-17T06:02:48.835Z,10.81
2018-09-17T06:03:49.797Z,10.83
2018-09-17T06:04:50.125Z,10.86
2018-09-17T06:05:50.449Z,10.89
2018-09-17T06:06:49.798Z,10.91
2018-09-17T06:07:50.191Z,10.93
2018-09-17T06:08:51.739Z,10.96
2018-09-17T06:09:52.257Z,10.98
2018-09-17T06:10:51.406Z,11.00
2018-09-17T06:10:59.837Z,11.38
2018-09-17T06:12:00.087Z,11.37
2018-09-17T06:13:01.378Z,11.37
2018-09-17T06:14:01.734Z,11.37
2018-09-17T06:15:02.162Z,11.37
2018-09-17T06:16:02.883Z,11.37
2018-09-17T06:17:03.180Z,11.38
2018-09-17T06:18:03.731Z,11.38
2018-09-17T06:19:03.961Z,11.38
2018-09-17T06:20:04.324Z,11.38
2018-09-17T06:21:04.631Z,11.39
2018-09-17T06:22:04.944Z,11.39
2018-09-17T06:23:05.293Z,11.39
2018-09-17T06:24:05.834Z,11.40
2018-09-17T06:25:06.172Z,11.40
2018-09-17T06:26:06.580Z,11.40
2018-09-17T06:27:07.253Z,11.40
2018-09-17T06:28:07.825Z,11.41
2018-09-17T06:29:08.628Z,11.41
2018-09-17T06:30:09.326Z,11.42
2018-09-17T06:31:09.679Z,11.42
2018-09-17T06:32:09.979Z,11.43
2018-09-17T06:33:10.561Z,11.44
2018-09-17T06:34:10.819Z,11.45
2018-09-17T06:35:11.140Z,11.47
2018-09-17T06:36:11.563Z,11.48
2018-09-17T06:37:12.175Z,11.50
2018-09-17T06:38:12.689Z,11.51
2018-09-17T06:39:13.176Z,11.53
2018-09-17T06:40:13.739Z,11.56
2018-09-17T06:41:14.179Z,11.58
2018-09-17T06:42:14.577Z,11.60
2018-09-17T06:43:14.938Z,11.62
2018-09-17T06:44:15.314Z,11.64
2018-09-17T06:45:15.937Z,11.66
2018-09-17T06:46:16.301Z,11.69
2018-09-17T06:47:16.572Z,11.71
2018-09-17T06:48:16.850Z,11.74
2018-09-17T06:49:17.121Z,11.76
2018-09-17T06:50:17.472Z,11.78
2018-09-17T06:51:17.763Z,11.81
2018-09-17T06:52:17.005Z,11.83
2018-09-17T06:53:18.285Z,11.85
2018-09-17T06:54:18.542Z,11.87
2018-09-17T06:55:19.006Z,11.90
2018-09-17T06:55:27.437Z,12.35
2018-09-17T06:56:28.693Z,12.35
2018-09-17T06:57:29.211Z,12.35
2018-09-17T06:58:29.572Z,12.36
2018-09-17T06:59:29.883Z,12.37
2018-09-17T07:00:30.284Z,12.37
2018-09-17T07:01:30.708Z,12.38
2018-09-17T07:02:31.073Z,12.38
2018-09-17T07:03:31.631Z,12.39
2018-09-17T07:04:31.831Z,12.40
2018-09-17T07:05:32.282Z,12.42
2018-09-17T07:06:33.167Z,12.43
2018-09-17T07:07:33.558Z,12.43
2018-09-17T07:08:33.822Z,12.44
2018-09-17T07:09:34.609Z,12.44
2018-09-17T07:10:34.937Z,12.44
2018-09-17T07:11:35.257Z,12.44
2018-09-17T07:12:35.538Z,12.44
2018-09-17T07:13:36.261Z,12.45
2018-09-17T07:14:36.625Z,12.46
2018-09-17T07:15:36.932Z,12.47
2018-09-17T07:16:37.187Z,12.48
2018-09-17T07:17:37.602Z,12.50
2018-09-17T07:18:37.902Z,12.53
2018-09-17T07:19:38.398Z,12.56
2018-09-17T07:20:38.651Z,12.59
2018-09-17T07:21:38.981Z,12.63
2018-09-17T07:22:39.387Z,12.68
2018-09-17T07:23:39.733Z,12.75
2018-09-17T07:24:40.043Z,12.84
2018-09-17T07:25:40.307Z,12.96
2018-09-17T07:26:40.725Z,13.10
2018-09-17T07:27:41.075Z,13.25
2018-09-17T07:28:40.417Z,13.41
2018-09-17T07:29:41.423Z,13.56
2018-09-17T07:30:41.914Z,13.72
2018-09-17T07:31:41.194Z,13.89
2018-09-17T07:32:42.523Z,14.06
2018-09-17T07:33:42.848Z,14.24
2018-09-17T07:34:43.096Z,14.44
2018-09-17T07:35:43.384Z,14.66
2018-09-17T07:36:43.793Z,14.90
2018-09-17T07:37:44.105Z,15.14
2018-09-17T07:38:44.526Z,15.40
2018-09-17T07:39:45.011Z,15.67
2018-09-17T07:40:45.543Z,15.93
2018-09-17T07:40:53.877Z,20.15
2018-09-17T07:41:55.129Z,20.15
2018-09-17T07:42:55.548Z,20.15
2018-09-17T07:43:55.811Z,20.15
2018-09-17T07:44:56.065Z,20.13
2018-09-17T07:45:56.403Z,20.13
2018-09-17T07:46:56.699Z,20.09
2018-09-17T07:47:57.392Z,20.08
2018-09-17T07:48:56.791Z,20.08
2018-09-17T07:49:58.679Z,20.09
2018-09-17T07:50:58.933Z,20.09
2018-09-17T07:51:59.251Z,20.12
2018-09-17T07:52:59.676Z,20.19
2018-09-17T07:53:58.987Z,20.28
2018-09-17T07:55:00.243Z,20.39
2018-09-17T07:56:00.543Z,20.51
2018-09-17T07:57:00.851Z,20.63
2018-09-17T07:58:01.665Z,20.76
2018-09-17T07:59:02.177Z,20.89
2018-09-17T08:00:01.472Z,21.02
2018-09-17T08:01:03.146Z,21.15
2018-09-17T08:02:03.420Z,21.26
2018-09-17T08:03:03.789Z,21.36
2018-09-17T08:04:04.156Z,21.45
2018-09-17T08:05:04.454Z,21.52
2018-09-17T08:06:05.005Z,21.58
2018-09-17T08:07:05.346Z,21.63
2018-09-17T08:08:05.637Z,21.67
2018-09-17T08:09:05.811Z,21.71
2018-09-17T08:10:06.145Z,21.76
2018-09-17T08:11:06.408Z,21.81
2018-09-17T08:12:07.056Z,21.87
2018-09-17T08:13:07.587Z,21.90
2018-09-17T08:14:07.728Z,21.95
2018-09-17T08:15:08.051Z,22.01
2018-09-17T08:16:08.669Z,22.09
2018-09-17T08:17:09.067Z,22.18
2018-09-17T08:18:08.556Z,22.23
2018-09-17T08:19:10.042Z,22.28
2018-09-17T08:20:10.371Z,22.33
2018-09-17T08:21:10.802Z,22.39
2018-09-17T08:22:11.189Z,22.45
2018-09-17T08:23:11.494Z,22.51
2018-09-17T08:24:12.084Z,22.56
2018-09-17T08:25:12.829Z,22.61
2018-09-17T08:26:13.312Z,22.66
2018-09-17T08:27:13.660Z,22.71
2018-09-17T08:27:21.708Z,23.31
2018-09-17T08:28:23.083Z,23.31
2018-09-17T08:29:23.371Z,23.30
2018-09-17T08:30:23.813Z,23.29
2018-09-17T08:31:24.432Z,23.28
2018-09-17T08:32:23.785Z,23.28
2018-09-17T08:33:25.048Z,23.27
2018-09-17T08:34:25.489Z,23.27
2018-09-17T08:35:25.846Z,23.28
2018-09-17T08:36:26.602Z,23.29
2018-09-17T08:37:27.012Z,23.30
2018-09-17T08:38:27.354Z,23.31
2018-09-17T08:39:27.614Z,23.31
2018-09-17T08:40:28.106Z,23.32
2018-09-17T08:41:28.467Z,23.33
2018-09-17T08:42:28.748Z,23.33
2018-09-17T08:43:29.051Z,23.32
2018-09-17T08:44:29.380Z,23.31
2018-09-17T08:45:29.876Z,23.28
2018-09-17T08:46:29.335Z,23.25
2018-09-17T08:47:29.611Z,23.22
2018-09-17T08:48:31.507Z,23.19
2018-09-17T08:49:31.825Z,23.17
2018-09-17T08:50:32.076Z,23.14
2018-09-17T08:51:32.308Z,23.11
2018-09-17T08:52:32.671Z,23.09
2018-09-17T08:53:32.994Z,23.07
2018-09-17T08:54:33.226Z,23.05
2018-09-17T08:55:33.507Z,23.06
2018-09-17T08:56:33.228Z,23.07
2018-09-17T08:57:34.674Z,23.06
2018-09-17T08:58:34.999Z,23.05
2018-09-17T08:59:35.363Z,23.04
2018-09-17T09:00:35.637Z,23.04
2018-09-17T09:01:36.407Z,23.03
2018-09-17T09:02:36.990Z,23.03
2018-09-17T09:03:37.266Z,23.02
2018-09-17T09:04:38.545Z,23.01
2018-09-17T09:05:37.791Z,23.00
2018-09-17T09:06:38.069Z,22.99
2018-09-17T09:07:38.556Z,22.98
2018-09-17T09:08:38.861Z,22.97
2018-09-17T09:09:39.546Z,22.95
2018-09-17T09:10:39.859Z,22.93
2018-09-17T09:11:40.181Z,22.92
2018-09-17T09:12:40.466Z,22.90
2018-09-17T09:13:40.785Z,22.89
2018-09-17T09:14:41.104Z,22.87
2018-09-17T09:14:49.438Z,22.51
2018-09-17T09:15:50.643Z,22.51
2018-09-17T09:16:50.992Z,22.51
2018-09-17T09:17:51.447Z,22.50
2018-09-17T09:18:51.824Z,22.50
2018-09-17T09:19:52.168Z,22.50
2018-09-17T09:20:52.456Z,22.51
2018-09-17T09:21:52.855Z,22.52
2018-09-17T09:22:53.371Z,22.53
2018-09-17T09:23:53.662Z,22.55
2018-09-17T09:24:54.567Z,22.57
2018-09-17T09:25:55.001Z,22.59
2018-09-17T09:26:55.258Z,22.60
2018-09-17T09:27:55.627Z,22.61
2018-09-17T09:28:55.950Z,22.62
2018-09-17T09:29:56.419Z,22.62
2018-09-17T09:30:57.219Z,22.62
2018-09-17T09:31:56.534Z,22.63
2018-09-17T09:32:58.255Z,22.64
2018-09-17T09:33:58.627Z,22.65
2018-09-17T09:34:58.875Z,22.65
2018-09-17T09:35:59.230Z,22.65
2018-09-17T09:36:59.488Z,22.66
2018-09-17T09:38:00.127Z,22.66
2018-09-17T09:38:59.439Z,22.67
2018-09-17T09:40:01.268Z,22.68
2018-09-17T09:41:01.959Z,22.69
2018-09-17T09:42:02.346Z,22.69
2018-09-17T09:43:02.803Z,22.70
2018-09-17T09:44:03.489Z,22.70
2018-09-17T09:45:03.825Z,22.71
2018-09-17T09:46:04.401Z,22.73
2018-09-17T09:47:05.084Z,22.75
2018-09-17T09:48:03.973Z,22.77
2018-09-17T09:49:05.656Z,22.79
2018-09-17T09:50:06.373Z,22.81
2018-09-17T09:51:07.051Z,22.83
2018-09-17T09:52:09.138Z,22.85
2018-09-17T09:53:07.496Z,22.87
2018-09-17T09:54:08.249Z,22.87
2018-09-17T09:55:08.324Z,22.88
2018-09-17T09:56:09.983Z,22.89
2018-09-17T09:57:09.503Z,22.90
2018-09-17T09:58:09.656Z,22.91
2018-09-17T09:59:10.332Z,22.92
2018-09-17T10:00:10.720Z,22.93
2018-09-17T10:01:11.438Z,22.94
2018-09-17T10:02:12.065Z,22.95
2018-09-17T10:03:11.938Z,22.97
2018-09-17T10:04:13.045Z,22.99
2018-09-17T10:05:13.698Z,23.00
2018-09-17T10:06:13.177Z,23.01
2018-09-17T10:07:14.405Z,23.03
2018-09-17T10:08:14.526Z,23.04
2018-09-17T10:09:16.540Z,23.06
2018-09-17T10:10:16.002Z,23.08
2018-09-17T10:11:17.706Z,23.11
2018-09-17T10:13:50.604Z,23.68
2018-09-17T10:14:51.109Z,23.68
2018-09-17T10:15:52.111Z,23.68
2018-09-17T10:16:51.173Z,23.68
2018-09-17T10:17:51.299Z,23.69
2018-09-17T10:18:52.965Z,23.71
2018-09-17T10:19:52.663Z,23.72
2018-09-17T10:20:53.202Z,23.74
2018-09-17T10:21:54.584Z,23.76
2018-09-17T10:22:55.027Z,23.78
2018-09-17T10:23:54.911Z,23.80
2018-09-17T10:24:56.579Z,23.83
2018-09-17T10:25:56.191Z,23.85
2018-09-17T10:26:56.679Z,23.87
2018-09-17T10:27:57.009Z,23.90
2018-09-17T10:28:56.793Z,23.92
2018-09-17T10:29:58.396Z,23.95
2018-09-17T10:30:57.572Z,23.98
2018-09-17T10:31:58.925Z,24.00
2018-09-17T10:32:58.973Z,24.02
2018-09-17T10:33:59.502Z,24.04
2018-09-17T10:35:00.083Z,24.06
2018-09-17T10:36:00.637Z,24.08
2018-09-17T10:37:01.483Z,24.10
2018-09-17T10:38:01.798Z,24.12
2018-09-17T10:39:02.430Z,24.15
2018-09-17T10:40:02.806Z,24.16
2018-09-17T10:41:03.160Z,24.18
2018-09-17T10:42:03.494Z,24.20
2018-09-17T10:43:03.778Z,24.22
2018-09-17T10:44:04.084Z,24.23
2018-09-17T10:45:04.440Z,24.25
2018-09-17T10:46:04.738Z,24.26
2018-09-17T10:47:05.032Z,24.27
2018-09-17T10:48:05.467Z,24.29
2018-09-17T10:49:05.749Z,24.30
2018-09-17T10:50:06.035Z,24.32
2018-09-17T10:51:06.414Z,24.33
2018-09-17T10:52:06.975Z,24.35
2018-09-17T10:53:07.286Z,24.36
2018-09-17T10:54:07.587Z,24.38
2018-09-17T10:55:07.909Z,24.40
2018-09-17T10:56:08.246Z,24.42
2018-09-17T10:57:09.199Z,24.44
2018-09-17T10:58:09.498Z,24.47
2018-09-17T10:59:09.885Z,24.49
2018-09-17T11:00:09.352Z,24.52
2018-09-17T11:01:10.704Z,24.56
2018-09-17T11:02:11.280Z,24.59
2018-09-17T11:03:11.571Z,24.63
2018-09-17T11:04:11.869Z,24.66
2018-09-17T11:05:12.435Z,24.69
2018-09-17T11:05:20.759Z,25.18
2018-09-17T11:06:22.080Z,25.18
2018-09-17T11:07:22.600Z,25.18
2018-09-17T11:08:22.919Z,25.19
2018-09-17T11:09:22.323Z,25.20
2018-09-17T11:10:23.953Z,25.20
2018-09-17T11:11:24.211Z,25.20
2018-09-17T11:12:24.471Z,25.20
2018-09-17T11:13:25.114Z,25.21
2018-09-17T11:14:25.607Z,25.21
2018-09-17T11:15:24.984Z,25.22
2018-09-17T11:16:26.055Z,25.22
2018-09-17T11:17:26.419Z,25.23
2018-09-17T11:18:25.843Z,25.25
2018-09-17T11:19:27.281Z,25.26
2018-09-17T11:20:28.009Z,25.28
2018-09-17T11:21:28.862Z,25.31
2018-09-17T11:22:29.289Z,25.33
2018-09-17T11:23:29.594Z,25.36
2018-09-17T11:24:30.301Z,25.40
2018-09-17T11:25:30.703Z,25.43
2018-09-17T11:26:31.215Z,25.47
2018-09-17T11:27:31.624Z,25.52
2018-09-17T11:28:32.002Z,25.57
2018-09-17T11:29:32.752Z,25.62
2018-09-17T11:30:33.323Z,25.67
2018-09-17T11:31:33.951Z,25.73
2018-09-17T11:32:33.259Z,25.79
2018-09-17T11:33:34.910Z,25.85
2018-09-17T11:34:35.430Z,25.90
2018-09-17T11:35:35.890Z,25.96
2018-09-17T11:36:36.214Z,26.01
2018-09-17T11:37:35.596Z,26.07
2018-09-17T11:38:36.935Z,26.13
2018-09-17T11:39:37.322Z,26.19
2018-09-17T11:40:38.168Z,26.25
2018-09-17T11:41:38.541Z,26.31
2018-09-17T11:42:38.991Z,26.37
2018-09-17T11:43:39.379Z,26.43
2018-09-17T11:44:38.729Z,26.49
2018-09-17T11:45:40.063Z,26.55
2018-09-17T11:46:40.393Z,26.61
2018-09-17T11:47:39.942Z,26.67
2018-09-17T11:48:41.334Z,26.72
2018-09-17T11:49:41.879Z,26.78
2018-09-17T11:50:42.295Z,26.83
2018-09-17T11:51:42.597Z,26.88
2018-09-17T11:52:43.095Z,26.93
2018-09-17T11:53:43.847Z,26.98
2018-09-17T11:54:44.603Z,27.02
2018-09-17T11:54:53.000Z,27.78
2018-09-17T11:55:53.245Z,27.77
2018-09-17T11:56:54.873Z,27.77
2018-09-17T11:57:55.305Z,27.77
2018-09-17T11:58:55.632Z,27.77
2018-09-17T11:59:56.048Z,27.76
2018-09-17T12:00:56.514Z,27.76
2018-09-17T12:01:57.066Z,27.75
2018-09-17T12:02:56.354Z,27.74
2018-09-17T12:03:57.881Z,27.74
2018-09-17T12:04:58.633Z,27.73
2018-09-17T12:05:58.925Z,27.73
2018-09-17T12:06:59.375Z,27.72
2018-09-17T12:08:00.176Z,27.72
2018-09-17T12:09:00.585Z,27.72
2018-09-17T12:10:01.247Z,27.71
2018-09-17T12:11:02.045Z,27.71
2018-09-17T12:12:02.574Z,27.71
2018-09-17T12:13:02.852Z,27.71
2018-09-17T12:14:03.233Z,27.71
2018-09-17T12:15:04.146Z,27.71
2018-09-17T12:16:04.733Z,27.71
2018-09-17T12:17:05.324Z,27.70
2018-09-17T12:18:05.745Z,27.70
2018-09-17T12:19:06.169Z,27.70
2018-09-17T12:20:06.861Z,27.69
2018-09-17T12:21:07.132Z,27.69
2018-09-17T12:22:07.546Z,27.69
2018-09-17T12:23:07.843Z,27.70
2018-09-17T12:24:08.680Z,27.70
2018-09-17T12:25:09.155Z,27.70
2018-09-17T12:26:09.456Z,27.69
2018-09-17T12:27:09.913Z,27.69
2018-09-17T12:28:10.285Z,27.69
2018-09-17T12:29:10.745Z,27.68
2018-09-17T12:30:11.317Z,27.68
2018-09-17T12:31:11.665Z,27.68
2018-09-17T12:32:12.294Z,27.68
2018-09-17T12:33:12.776Z,27.68
2018-09-17T12:34:13.099Z,27.68
2018-09-17T12:35:13.776Z,27.68
2018-09-17T12:36:14.165Z,27.68
2018-09-17T12:37:14.577Z,27.69
2018-09-17T12:38:14.994Z,27.69
2018-09-17T12:39:15.338Z,27.70
2018-09-17T12:40:15.715Z,27.71
2018-09-17T12:40:24.004Z,27.80
2018-09-17T12:41:25.386Z,27.80
2018-09-17T12:42:25.075Z,27.80
2018-09-17T12:43:26.372Z,27.80
2018-09-17T12:44:26.832Z,27.81
2018-09-17T12:45:27.460Z,27.81